Knoxville, AL

12:09 PM CDT on July 02, 2015 (GMT -0500)
Woodhaven Farms | | Change Station
CLOSE
Current Station
Personal Weather Station
Location: Ralph, AL
Elevation: 249 ft
Nearby Weather Stations

Elev 249 ft 33.10 °N, 87.76 °W | Updated 30 seconds ago

Mostly Cloudy
Mostly Cloudy
81.9 °F
Feels Like 86 °F
N
9.8
Wind Variable Wind from SSW
Gusts 12.3 mph

Today
High -- | Low -- °F
--% Chance of Precip.
Yesterday
High -- | Low -- °F
Precip. -- in
5:46 AM 8:03 PM
Full, 100% visible
Pressure 30.03 in
Visibility 9.0 miles
Clouds Few 2600 ft
Few 11000 ft
Heat Index 86 °F
Dew Point 72 °F
Humidity 71%
Rainfall 0.00 in
Snow Depth Not available.
UV 4.0 out of 12
Pollen 2.00 out of 12
Air Quality Not available.
Flu Activity Not available.
METAR KTCL 021653Z 22010KT 9SM FEW026 FEW110 28/22 A3004 RMK AO2 RAE01 SLP169 P0000 T02830217

More Conditions Fewer Conditions

Pressure 30.03 in
Visibility 9.0 miles
Clouds Few 2600 ft
Few 11000 ft
Heat Index 86 °F
Dew Point 72 °F
Humidity 71%
Rainfall 0.00 in
Snow Depth Not available.
UV 4.0 out of 12
Pollen 2.00 out of 12
Air Quality Not available.
Flu Activity Not available.
METAR KTCL 021653Z 22010KT 9SM FEW026 FEW110 28/22 A3004 RMK AO2 RAE01 SLP169 P0000 T02830217

More Conditions Fewer Conditions

10-Day Weather Forecast

×

Almanac

Astronomy

Jul. 02, 2015 Rise Set
Actual Time
Civil Twilight
Nautical Twilight
Astronomical Twilight
Moon
Length of Visible Light
Length of Day
Tomorrow will be .
, % of the Moon is Illuminated

Today's Extremes

State Highs State Lows

Community

WunderPhotos

Upload Photos

1,834,501 photos uploaded!

WunderBlogs® & News

Nearby

Air Quality

  Air Quality AQ Index Pollutant
Not available.

Snow Depth

Station Depth Elevation

Earthquake Activity

City Distance Mag. Time & Date
Minimum magnitude displayed is 2.5.

Coastal Water Temperatures

Place Temperature

Stations

Nearby Weather Stations

Station Location Temp. Windchill Dew Point Humidity Wind Precip. Elev Updated Type